sensor_id;sensor_type;location;lat;lon;timestamp;P1;durP1;ratioP1;P2;durP2;ratioP2
11386;SDS011;5748;53.102;8.456;2024-03-07T00:00:52;4.73;;;4.33;;
11386;SDS011;5748;53.102;8.456;2024-03-07T00:03:20;4.80;;;4.40;;
11386;SDS011;5748;53.102;8.456;2024-03-07T00:05:49;4.50;;;4.10;;
11386;SDS011;5748;53.102;8.456;2024-03-07T00:08:16;4.67;;;4.27;;
11386;SDS011;5748;53.102;8.456;2024-03-07T00:10:45;4.63;;;4.23;;
11386;SDS011;5748;53.102;8.456;2024-03-07T00:13:12;4.63;;;4.23;;
11386;SDS011;5748;53.102;8.456;2024-03-07T00:15:39;4.67;;;4.27;;
11386;SDS011;5748;53.102;8.456;2024-03-07T00:18:06;4.67;;;4.27;;
11386;SDS011;5748;53.102;8.456;2024-03-07T00:20:35;4.70;;;4.30;;
11386;SDS011;5748;53.102;8.456;2024-03-07T00:23:03;4.63;;;4.23;;
11386;SDS011;5748;53.102;8.456;2024-03-07T00:25:30;4.63;;;4.23;;
11386;SDS011;5748;53.102;8.456;2024-03-07T00:27:58;4.80;;;4.40;;
11386;SDS011;5748;53.102;8.456;2024-03-07T00:30:28;4.47;;;4.07;;
11386;SDS011;5748;53.102;8.456;2024-03-07T00:32:55;4.77;;;4.37;;
11386;SDS011;5748;53.102;8.456;2024-03-07T00:35:23;4.47;;;4.13;;
11386;SDS011;5748;53.102;8.456;2024-03-07T00:37:50;4.60;;;4.20;;
11386;SDS011;5748;53.102;8.456;2024-03-07T00:40:17;4.87;;;4.47;;
11386;SDS011;5748;53.102;8.456;2024-03-07T00:42:44;4.60;;;4.20;;
11386;SDS011;5748;53.102;8.456;2024-03-07T00:45:13;4.80;;;4.40;;
11386;SDS011;5748;53.102;8.456;2024-03-07T00:47:40;4.97;;;4.57;;
11386;SDS011;5748;53.102;8.456;2024-03-07T00:50:07;5.27;;;4.77;;
11386;SDS011;5748;53.102;8.456;2024-03-07T00:52:35;4.97;;;4.57;;
11386;SDS011;5748;53.102;8.456;2024-03-07T00:55:02;5.07;;;4.67;;
11386;SDS011;5748;53.102;8.456;2024-03-07T00:57:33;4.93;;;4.53;;
11386;SDS011;5748;53.102;8.456;2024-03-07T01:00:00;4.67;;;4.30;;
11386;SDS011;5748;53.102;8.456;2024-03-07T01:02:29;5.10;;;4.70;;
11386;SDS011;5748;53.102;8.456;2024-03-07T01:04:56;5.00;;;4.60;;
11386;SDS011;5748;53.102;8.456;2024-03-07T01:07:23;5.03;;;4.63;;
11386;SDS011;5748;53.102;8.456;2024-03-07T01:09:50;5.40;;;5.00;;
11386;SDS011;5748;53.102;8.456;2024-03-07T01:12:19;4.77;;;4.37;;
11386;SDS011;5748;53.102;8.456;2024-03-07T01:14:49;4.90;;;4.50;;
11386;SDS011;5748;53.102;8.456;2024-03-07T01:17:16;5.23;;;4.83;;
11386;SDS011;5748;53.102;8.456;2024-03-07T01:19:44;5.00;;;4.60;;
11386;SDS011;5748;53.102;8.456;2024-03-07T01:22:11;5.33;;;4.93;;
11386;SDS011;5748;53.102;8.456;2024-03-07T01:24:38;5.23;;;4.83;;
11386;SDS011;5748;53.102;8.456;2024-03-07T01:27:06;5.30;;;4.90;;
11386;SDS011;5748;53.102;8.456;2024-03-07T01:29:33;5.20;;;4.80;;
11386;SDS011;5748;53.102;8.456;2024-03-07T01:32:00;5.97;;;5.47;;
11386;SDS011;5748;53.102;8.456;2024-03-07T01:34:28;5.33;;;4.90;;
11386;SDS011;5748;53.102;8.456;2024-03-07T01:36:56;5.80;;;5.30;;
11386;SDS011;5748;53.102;8.456;2024-03-07T01:39:23;6.43;;;5.93;;
11386;SDS011;5748;53.102;8.456;2024-03-07T01:41:50;5.53;;;5.03;;
11386;SDS011;5748;53.102;8.456;2024-03-07T01:44:17;5.70;;;5.20;;
11386;SDS011;5748;53.102;8.456;2024-03-07T01:46:44;6.07;;;5.57;;
11386;SDS011;5748;53.102;8.456;2024-03-07T01:49:12;6.00;;;5.50;;
11386;SDS011;5748;53.102;8.456;2024-03-07T01:51:39;6.23;;;5.73;;
11386;SDS011;5748;53.102;8.456;2024-03-07T01:54:07;5.70;;;5.20;;
11386;SDS011;5748;53.102;8.456;2024-03-07T01:56:36;6.30;;;5.80;;
11386;SDS011;5748;53.102;8.456;2024-03-07T01:59:03;5.90;;;5.40;;
11386;SDS011;5748;53.102;8.456;2024-03-07T02:01:32;6.80;;;6.13;;
11386;SDS011;5748;53.102;8.456;2024-03-07T02:04:01;6.00;;;5.50;;
11386;SDS011;5748;53.102;8.456;2024-03-07T02:06:29;5.97;;;5.47;;
11386;SDS011;5748;53.102;8.456;2024-03-07T02:08:56;5.97;;;5.47;;
11386;SDS011;5748;53.102;8.456;2024-03-07T02:11:25;6.03;;;5.53;;
11386;SDS011;5748;53.102;8.456;2024-03-07T02:13:52;6.40;;;5.90;;
11386;SDS011;5748;53.102;8.456;2024-03-07T02:16:18;6.30;;;5.80;;
11386;SDS011;5748;53.102;8.456;2024-03-07T02:18:46;6.90;;;6.30;;
11386;SDS011;5748;53.102;8.456;2024-03-07T02:21:15;6.63;;;6.07;;
11386;SDS011;5748;53.102;8.456;2024-03-07T02:23:42;7.00;;;6.40;;
11386;SDS011;5748;53.102;8.456;2024-03-07T02:26:09;7.13;;;6.53;;
11386;SDS011;5748;53.102;8.456;2024-03-07T02:28:36;7.67;;;6.97;;
11386;SDS011;5748;53.102;8.456;2024-03-07T02:31:03;8.00;;;7.30;;
11386;SDS011;5748;53.102;8.456;2024-03-07T02:33:30;8.27;;;7.57;;
11386;SDS011;5748;53.102;8.456;2024-03-07T02:35:58;8.90;;;8.10;;
11386;SDS011;5748;53.102;8.456;2024-03-07T02:38:26;8.63;;;7.93;;
11386;SDS011;5748;53.102;8.456;2024-03-07T02:40:53;9.57;;;8.77;;
11386;SDS011;5748;53.102;8.456;2024-03-07T02:46:06;9.97;;;9.10;;
11386;SDS011;5748;53.102;8.456;2024-03-07T02:48:33;10.23;;;9.33;;
11386;SDS011;5748;53.102;8.456;2024-03-07T02:51:00;10.73;;;9.73;;
11386;SDS011;5748;53.102;8.456;2024-03-07T02:53:28;10.70;;;9.70;;
11386;SDS011;5748;53.102;8.456;2024-03-07T02:55:55;10.53;;;9.63;;
11386;SDS011;5748;53.102;8.456;2024-03-07T02:58:22;12.27;;;11.17;;
11386;SDS011;5748;53.102;8.456;2024-03-07T03:00:49;12.00;;;10.87;;
11386;SDS011;5748;53.102;8.456;2024-03-07T03:03:24;12.60;;;11.40;;
11386;SDS011;5748;53.102;8.456;2024-03-07T03:05:52;13.80;;;12.50;;
11386;SDS011;5748;53.102;8.456;2024-03-07T03:08:19;14.30;;;13.00;;
11386;SDS011;5748;53.102;8.456;2024-03-07T03:10:48;13.93;;;12.60;;
11386;SDS011;5748;53.102;8.456;2024-03-07T03:13:16;14.77;;;13.27;;
11386;SDS011;5748;53.102;8.456;2024-03-07T03:15:43;14.27;;;12.83;;
11386;SDS011;5748;53.102;8.456;2024-03-07T03:18:10;13.70;;;12.37;;
11386;SDS011;5748;53.102;8.456;2024-03-07T03:20:38;13.43;;;12.13;;
11386;SDS011;5748;53.102;8.456;2024-03-07T03:23:05;12.80;;;11.60;;
11386;SDS011;5748;53.102;8.456;2024-03-07T03:25:36;13.27;;;12.00;;
11386;SDS011;5748;53.102;8.456;2024-03-07T03:28:05;12.23;;;11.03;;
11386;SDS011;5748;53.102;8.456;2024-03-07T03:30:34;11.83;;;10.73;;
11386;SDS011;5748;53.102;8.456;2024-03-07T03:33:02;12.97;;;11.77;;
11386;SDS011;5748;53.102;8.456;2024-03-07T03:35:30;12.40;;;11.23;;
11386;SDS011;5748;53.102;8.456;2024-03-07T03:37:58;12.83;;;11.63;;
11386;SDS011;5748;53.102;8.456;2024-03-07T03:40:26;12.30;;;11.10;;
11386;SDS011;5748;53.102;8.456;2024-03-07T03:42:53;11.77;;;10.60;;
11386;SDS011;5748;53.102;8.456;2024-03-07T03:45:22;12.53;;;11.37;;
11386;SDS011;5748;53.102;8.456;2024-03-07T03:47:50;14.50;;;13.07;;
11386;SDS011;5748;53.102;8.456;2024-03-07T03:50:17;13.67;;;12.37;;
11386;SDS011;5748;53.102;8.456;2024-03-07T03:52:45;13.67;;;12.37;;
11386;SDS011;5748;53.102;8.456;2024-03-07T03:55:12;13.00;;;11.70;;
11386;SDS011;5748;53.102;8.456;2024-03-07T03:57:39;12.07;;;10.57;;
11386;SDS011;5748;53.102;8.456;2024-03-07T04:00:09;13.33;;;12.03;;
11386;SDS011;5748;53.102;8.456;2024-03-07T04:02:40;12.10;;;10.90;;
11386;SDS011;5748;53.102;8.456;2024-03-07T04:05:08;12.83;;;11.53;;
11386;SDS011;5748;53.102;8.456;2024-03-07T04:07:35;13.13;;;11.73;;
11386;SDS011;5748;53.102;8.456;2024-03-07T04:10:03;12.77;;;11.57;;
11386;SDS011;5748;53.102;8.456;2024-03-07T04:12:33;12.90;;;11.60;;
11386;SDS011;5748;53.102;8.456;2024-03-07T04:15:00;14.23;;;12.40;;
11386;SDS011;5748;53.102;8.456;2024-03-07T04:17:28;13.73;;;12.23;;
11386;SDS011;5748;53.102;8.456;2024-03-07T04:19:58;16.00;;;13.40;;
11386;SDS011;5748;53.102;8.456;2024-03-07T04:22:25;13.50;;;12.13;;
11386;SDS011;5748;53.102;8.456;2024-03-07T04:24:52;15.13;;;13.53;;
11386;SDS011;5748;53.102;8.456;2024-03-07T04:27:20;15.10;;;13.33;;
11386;SDS011;5748;53.102;8.456;2024-03-07T04:29:47;13.70;;;12.23;;
11386;SDS011;5748;53.102;8.456;2024-03-07T04:32:14;15.03;;;13.43;;
11386;SDS011;5748;53.102;8.456;2024-03-07T04:34:42;18.20;;;13.20;;
11386;SDS011;5748;53.102;8.456;2024-03-07T04:37:11;14.67;;;13.07;;
11386;SDS011;5748;53.102;8.456;2024-03-07T04:39:38;15.13;;;13.53;;
11386;SDS011;5748;53.102;8.456;2024-03-07T04:42:06;14.57;;;12.93;;
11386;SDS011;5748;53.102;8.456;2024-03-07T04:44:35;14.80;;;13.20;;
11386;SDS011;5748;53.102;8.456;2024-03-07T04:47:04;14.13;;;12.73;;
11386;SDS011;5748;53.102;8.456;2024-03-07T04:49:32;13.47;;;12.07;;
11386;SDS011;5748;53.102;8.456;2024-03-07T04:52:01;13.30;;;11.90;;
11386;SDS011;5748;53.102;8.456;2024-03-07T04:54:32;12.37;;;11.17;;
11386;SDS011;5748;53.102;8.456;2024-03-07T04:57:00;13.23;;;11.83;;
11386;SDS011;5748;53.102;8.456;2024-03-07T04:59:27;13.30;;;10.30;;
11386;SDS011;5748;53.102;8.456;2024-03-07T05:01:54;13.60;;;12.20;;
11386;SDS011;5748;53.102;8.456;2024-03-07T05:04:22;12.13;;;11.00;;
11386;SDS011;5748;53.102;8.456;2024-03-07T05:06:54;12.23;;;11.00;;
11386;SDS011;5748;53.102;8.456;2024-03-07T05:09:22;11.90;;;10.70;;
11386;SDS011;5748;53.102;8.456;2024-03-07T05:11:52;11.53;;;10.43;;
11386;SDS011;5748;53.102;8.456;2024-03-07T05:14:19;11.80;;;10.50;;
11386;SDS011;5748;53.102;8.456;2024-03-07T05:16:47;12.17;;;10.93;;
11386;SDS011;5748;53.102;8.456;2024-03-07T05:19:29;11.33;;;10.23;;
11386;SDS011;5748;53.102;8.456;2024-03-07T05:21:58;11.00;;;10.00;;
11386;SDS011;5748;53.102;8.456;2024-03-07T05:24:25;13.77;;;11.87;;
11386;SDS011;5748;53.102;8.456;2024-03-07T05:26:53;11.17;;;10.07;;
11386;SDS011;5748;53.102;8.456;2024-03-07T05:29:21;11.33;;;10.23;;
11386;SDS011;5748;53.102;8.456;2024-03-07T05:31:48;11.70;;;10.57;;
11386;SDS011;5748;53.102;8.456;2024-03-07T05:34:15;11.67;;;10.57;;
11386;SDS011;5748;53.102;8.456;2024-03-07T05:36:44;12.27;;;10.63;;
11386;SDS011;5748;53.102;8.456;2024-03-07T05:39:12;11.27;;;10.27;;
11386;SDS011;5748;53.102;8.456;2024-03-07T05:41:40;11.30;;;10.20;;
11386;SDS011;5748;53.102;8.456;2024-03-07T05:44:11;10.57;;;9.57;;
11386;SDS011;5748;53.102;8.456;2024-03-07T05:46:38;10.93;;;9.83;;
11386;SDS011;5748;53.102;8.456;2024-03-07T05:49:11;11.23;;;10.17;;
11386;SDS011;5748;53.102;8.456;2024-03-07T05:51:38;11.57;;;10.47;;
11386;SDS011;5748;53.102;8.456;2024-03-07T05:54:07;10.87;;;9.87;;
11386;SDS011;5748;53.102;8.456;2024-03-07T05:56:34;10.90;;;9.80;;
11386;SDS011;5748;53.102;8.456;2024-03-07T05:59:01;11.37;;;10.30;;
11386;SDS011;5748;53.102;8.456;2024-03-07T06:01:31;11.07;;;10.00;;
11386;SDS011;5748;53.102;8.456;2024-03-07T06:03:59;11.00;;;10.00;;
11386;SDS011;5748;53.102;8.456;2024-03-07T06:06:26;10.27;;;9.37;;
11386;SDS011;5748;53.102;8.456;2024-03-07T06:08:56;9.43;;;8.50;;
11386;SDS011;5748;53.102;8.456;2024-03-07T06:11:23;9.83;;;8.93;;
11386;SDS011;5748;53.102;8.456;2024-03-07T06:13:51;11.53;;;10.43;;
11386;SDS011;5748;53.102;8.456;2024-03-07T06:16:18;11.83;;;10.70;;
11386;SDS011;5748;53.102;8.456;2024-03-07T06:18:46;13.43;;;12.13;;
11386;SDS011;5748;53.102;8.456;2024-03-07T06:21:13;15.43;;;13.87;;
11386;SDS011;5748;53.102;8.456;2024-03-07T06:23:41;13.97;;;12.50;;
11386;SDS011;5748;53.102;8.456;2024-03-07T06:26:12;13.70;;;12.30;;
11386;SDS011;5748;53.102;8.456;2024-03-07T06:28:42;14.20;;;12.80;;
11386;SDS011;5748;53.102;8.456;2024-03-07T06:31:10;13.17;;;11.93;;
11386;SDS011;5748;53.102;8.456;2024-03-07T06:33:37;12.93;;;11.73;;
11386;SDS011;5748;53.102;8.456;2024-03-07T06:36:06;12.83;;;11.53;;
11386;SDS011;5748;53.102;8.456;2024-03-07T06:38:34;13.10;;;11.27;;
11386;SDS011;5748;53.102;8.456;2024-03-07T06:41:01;12.97;;;11.67;;
11386;SDS011;5748;53.102;8.456;2024-03-07T06:43:28;12.37;;;11.23;;
11386;SDS011;5748;53.102;8.456;2024-03-07T06:45:55;12.30;;;11.13;;
11386;SDS011;5748;53.102;8.456;2024-03-07T06:48:22;10.70;;;9.70;;
11386;SDS011;5748;53.102;8.456;2024-03-07T06:50:49;11.07;;;9.97;;
11386;SDS011;5748;53.102;8.456;2024-03-07T06:53:19;10.87;;;9.77;;
11386;SDS011;5748;53.102;8.456;2024-03-07T06:55:51;9.97;;;8.97;;
11386;SDS011;5748;53.102;8.456;2024-03-07T06:58:19;10.37;;;9.37;;
11386;SDS011;5748;53.102;8.456;2024-03-07T07:00:46;10.00;;;9.10;;
11386;SDS011;5748;53.102;8.456;2024-03-07T07:03:14;9.87;;;8.97;;
11386;SDS011;5748;53.102;8.456;2024-03-07T07:05:41;8.67;;;7.87;;
11386;SDS011;5748;53.102;8.456;2024-03-07T07:08:09;8.80;;;8.00;;
11386;SDS011;5748;53.102;8.456;2024-03-07T07:10:40;9.03;;;8.23;;
11386;SDS011;5748;53.102;8.456;2024-03-07T07:13:07;8.20;;;7.40;;
11386;SDS011;5748;53.102;8.456;2024-03-07T07:15:35;7.93;;;7.23;;
11386;SDS011;5748;53.102;8.456;2024-03-07T07:18:03;8.50;;;7.73;;
11386;SDS011;5748;53.102;8.456;2024-03-07T07:20:32;8.37;;;7.47;;
11386;SDS011;5748;53.102;8.456;2024-03-07T07:23:00;8.50;;;7.70;;
11386;SDS011;5748;53.102;8.456;2024-03-07T07:25:28;8.77;;;7.93;;
11386;SDS011;5748;53.102;8.456;2024-03-07T07:27:57;8.67;;;7.80;;
11386;SDS011;5748;53.102;8.456;2024-03-07T07:30:24;8.40;;;7.60;;
11386;SDS011;5748;53.102;8.456;2024-03-07T07:32:52;8.70;;;7.90;;
11386;SDS011;5748;53.102;8.456;2024-03-07T07:35:19;9.40;;;8.47;;
11386;SDS011;5748;53.102;8.456;2024-03-07T07:37:47;9.30;;;8.43;;
11386;SDS011;5748;53.102;8.456;2024-03-07T07:40:17;9.57;;;8.67;;
11386;SDS011;5748;53.102;8.456;2024-03-07T07:42:48;8.97;;;8.10;;
11386;SDS011;5748;53.102;8.456;2024-03-07T07:45:19;8.83;;;8.03;;
11386;SDS011;5748;53.102;8.456;2024-03-07T07:47:48;9.33;;;8.43;;
11386;SDS011;5748;53.102;8.456;2024-03-07T07:50:18;9.63;;;8.63;;
11386;SDS011;5748;53.102;8.456;2024-03-07T07:52:47;9.00;;;8.10;;
11386;SDS011;5748;53.102;8.456;2024-03-07T07:55:16;8.53;;;7.73;;
11386;SDS011;5748;53.102;8.456;2024-03-07T07:57:45;8.40;;;7.60;;
11386;SDS011;5748;53.102;8.456;2024-03-07T08:00:14;8.80;;;8.00;;
11386;SDS011;5748;53.102;8.456;2024-03-07T08:02:52;8.53;;;7.73;;
11386;SDS011;5748;53.102;8.456;2024-03-07T08:05:22;8.63;;;7.73;;
11386;SDS011;5748;53.102;8.456;2024-03-07T08:07:50;9.30;;;8.40;;
11386;SDS011;5748;53.102;8.456;2024-03-07T08:10:18;8.63;;;7.83;;
11386;SDS011;5748;53.102;8.456;2024-03-07T08:12:45;8.53;;;7.73;;
11386;SDS011;5748;53.102;8.456;2024-03-07T08:15:13;8.30;;;7.50;;
11386;SDS011;5748;53.102;8.456;2024-03-07T08:17:41;8.23;;;7.43;;
11386;SDS011;5748;53.102;8.456;2024-03-07T08:20:12;8.53;;;7.73;;
11386;SDS011;5748;53.102;8.456;2024-03-07T08:22:40;7.80;;;7.00;;
11386;SDS011;5748;53.102;8.456;2024-03-07T08:25:09;8.07;;;7.27;;
11386;SDS011;5748;53.102;8.456;2024-03-07T08:27:37;8.60;;;7.70;;
11386;SDS011;5748;53.102;8.456;2024-03-07T08:30:06;8.47;;;7.67;;
11386;SDS011;5748;53.102;8.456;2024-03-07T08:32:38;7.90;;;7.10;;
11386;SDS011;5748;53.102;8.456;2024-03-07T08:35:06;8.63;;;7.73;;
11386;SDS011;5748;53.102;8.456;2024-03-07T08:37:37;8.67;;;7.77;;
11386;SDS011;5748;53.102;8.456;2024-03-07T08:40:05;8.90;;;7.97;;
11386;SDS011;5748;53.102;8.456;2024-03-07T08:42:35;9.80;;;8.23;;
11386;SDS011;5748;53.102;8.456;2024-03-07T08:45:03;9.33;;;8.33;;
11386;SDS011;5748;53.102;8.456;2024-03-07T08:47:31;8.43;;;7.53;;
11386;SDS011;5748;53.102;8.456;2024-03-07T08:49:58;9.07;;;8.00;;
11386;SDS011;5748;53.102;8.456;2024-03-07T08:52:26;8.43;;;7.50;;
11386;SDS011;5748;53.102;8.456;2024-03-07T08:54:55;10.00;;;7.77;;
11386;SDS011;5748;53.102;8.456;2024-03-07T08:57:22;8.63;;;7.33;;
11386;SDS011;5748;53.102;8.456;2024-03-07T08:59:49;9.00;;;8.10;;
11386;SDS011;5748;53.102;8.456;2024-03-07T09:02:16;8.50;;;7.60;;
11386;SDS011;5748;53.102;8.456;2024-03-07T09:04:43;8.90;;;7.97;;
11386;SDS011;5748;53.102;8.456;2024-03-07T09:07:11;10.60;;;8.40;;
11386;SDS011;5748;53.102;8.456;2024-03-07T09:09:39;11.60;;;9.17;;
11386;SDS011;5748;53.102;8.456;2024-03-07T09:12:09;9.77;;;8.77;;
11386;SDS011;5748;53.102;8.456;2024-03-07T09:14:37;9.57;;;8.57;;
11386;SDS011;5748;53.102;8.456;2024-03-07T09:17:05;10.67;;;8.70;;
11386;SDS011;5748;53.102;8.456;2024-03-07T09:19:32;9.70;;;8.47;;
11386;SDS011;5748;53.102;8.456;2024-03-07T09:21:59;10.37;;;9.27;;
11386;SDS011;5748;53.102;8.456;2024-03-07T09:24:28;11.03;;;9.23;;
11386;SDS011;5748;53.102;8.456;2024-03-07T09:26:57;9.27;;;8.17;;
11386;SDS011;5748;53.102;8.456;2024-03-07T09:29:25;10.63;;;9.33;;
11386;SDS011;5748;53.102;8.456;2024-03-07T09:31:53;9.90;;;8.90;;
11386;SDS011;5748;53.102;8.456;2024-03-07T09:34:20;8.80;;;7.87;;
11386;SDS011;5748;53.102;8.456;2024-03-07T09:36:47;8.77;;;7.50;;
11386;SDS011;5748;53.102;8.456;2024-03-07T09:39:15;8.53;;;7.67;;
11386;SDS011;5748;53.102;8.456;2024-03-07T09:41:42;7.97;;;7.17;;
11386;SDS011;5748;53.102;8.456;2024-03-07T09:44:09;7.97;;;7.17;;
11386;SDS011;5748;53.102;8.456;2024-03-07T09:46:43;7.83;;;7.03;;
11386;SDS011;5748;53.102;8.456;2024-03-07T09:49:12;7.87;;;6.93;;
11386;SDS011;5748;53.102;8.456;2024-03-07T09:51:40;8.17;;;7.37;;
11386;SDS011;5748;53.102;8.456;2024-03-07T09:54:09;8.63;;;7.73;;
11386;SDS011;5748;53.102;8.456;2024-03-07T09:56:37;8.40;;;7.50;;
11386;SDS011;5748;53.102;8.456;2024-03-07T09:59:05;8.53;;;7.73;;
11386;SDS011;5748;53.102;8.456;2024-03-07T10:01:38;8.07;;;7.27;;
11386;SDS011;5748;53.102;8.456;2024-03-07T10:04:11;8.20;;;7.07;;
11386;SDS011;5748;53.102;8.456;2024-03-07T10:06:41;7.93;;;7.13;;
11386;SDS011;5748;53.102;8.456;2024-03-07T10:09:10;10.43;;;9.30;;
11386;SDS011;5748;53.102;8.456;2024-03-07T10:11:38;10.33;;;9.23;;
11386;SDS011;5748;53.102;8.456;2024-03-07T10:14:06;9.73;;;8.73;;
11386;SDS011;5748;53.102;8.456;2024-03-07T10:16:33;8.90;;;8.00;;
11386;SDS011;5748;53.102;8.456;2024-03-07T10:19:05;9.33;;;8.43;;
11386;SDS011;5748;53.102;8.456;2024-03-07T10:21:33;8.80;;;7.90;;
11386;SDS011;5748;53.102;8.456;2024-03-07T10:24:05;10.17;;;8.90;;
11386;SDS011;5748;53.102;8.456;2024-03-07T10:26:33;10.03;;;9.03;;
11386;SDS011;5748;53.102;8.456;2024-03-07T10:29:02;9.10;;;8.20;;
11386;SDS011;5748;53.102;8.456;2024-03-07T10:31:31;9.47;;;8.53;;
11386;SDS011;5748;53.102;8.456;2024-03-07T10:33:59;9.27;;;8.37;;
11386;SDS011;5748;53.102;8.456;2024-03-07T10:36:28;9.40;;;8.50;;
11386;SDS011;5748;53.102;8.456;2024-03-07T10:38:57;9.03;;;8.13;;
11386;SDS011;5748;53.102;8.456;2024-03-07T10:41:39;9.67;;;8.27;;
11386;SDS011;5748;53.102;8.456;2024-03-07T10:44:13;9.57;;;8.43;;
11386;SDS011;5748;53.102;8.456;2024-03-07T10:46:52;11.60;;;10.40;;
11386;SDS011;5748;53.102;8.456;2024-03-07T10:49:20;11.63;;;10.43;;
11386;SDS011;5748;53.102;8.456;2024-03-07T10:51:53;11.73;;;9.23;;
11386;SDS011;5748;53.102;8.456;2024-03-07T10:54:31;10.57;;;9.47;;
11386;SDS011;5748;53.102;8.456;2024-03-07T10:57:08;10.40;;;9.03;;
11386;SDS011;5748;53.102;8.456;2024-03-07T10:59:49;9.37;;;8.47;;
11386;SDS011;5748;53.102;8.456;2024-03-07T11:02:20;8.83;;;7.93;;
11386;SDS011;5748;53.102;8.456;2024-03-07T11:04:54;7.90;;;7.10;;
11386;SDS011;5748;53.102;8.456;2024-03-07T11:07:23;8.13;;;7.33;;
11386;SDS011;5748;53.102;8.456;2024-03-07T11:09:52;7.87;;;7.07;;
11386;SDS011;5748;53.102;8.456;2024-03-07T11:12:21;8.87;;;7.97;;
11386;SDS011;5748;53.102;8.456;2024-03-07T11:14:54;8.73;;;7.93;;
11386;SDS011;5748;53.102;8.456;2024-03-07T11:17:23;11.70;;;9.43;;
11386;SDS011;5748;53.102;8.456;2024-03-07T11:19:50;11.53;;;10.37;;
11386;SDS011;5748;53.102;8.456;2024-03-07T11:22:31;11.80;;;10.60;;
11386;SDS011;5748;53.102;8.456;2024-03-07T11:25:02;11.70;;;10.27;;
11386;SDS011;5748;53.102;8.456;2024-03-07T11:27:33;12.17;;;10.87;;
11386;SDS011;5748;53.102;8.456;2024-03-07T11:30:07;11.23;;;10.13;;
11386;SDS011;5748;53.102;8.456;2024-03-07T11:32:37;12.33;;;11.03;;
11386;SDS011;5748;53.102;8.456;2024-03-07T11:35:08;13.17;;;11.83;;
11386;SDS011;5748;53.102;8.456;2024-03-07T11:37:41;12.43;;;11.13;;
11386;SDS011;5748;53.102;8.456;2024-03-07T11:40:13;15.37;;;13.77;;
11386;SDS011;5748;53.102;8.456;2024-03-07T11:43:11;14.90;;;13.40;;
11386;SDS011;5748;53.102;8.456;2024-03-07T11:45:38;14.00;;;12.50;;
11386;SDS011;5748;53.102;8.456;2024-03-07T11:48:10;18.53;;;15.17;;
11386;SDS011;5748;53.102;8.456;2024-03-07T11:50:37;18.17;;;16.13;;
11386;SDS011;5748;53.102;8.456;2024-03-07T11:53:07;18.07;;;16.20;;
11386;SDS011;5748;53.102;8.456;2024-03-07T11:55:35;16.47;;;14.77;;
11386;SDS011;5748;53.102;8.456;2024-03-07T11:58:11;16.17;;;14.33;;
11386;SDS011;5748;53.102;8.456;2024-03-07T12:00:39;16.10;;;14.37;;
11386;SDS011;5748;53.102;8.456;2024-03-07T12:03:10;16.40;;;14.70;;
11386;SDS011;5748;53.102;8.456;2024-03-07T12:05:39;15.77;;;13.70;;
11386;SDS011;5748;53.102;8.456;2024-03-07T12:08:08;13.33;;;11.93;;
11386;SDS011;5748;53.102;8.456;2024-03-07T12:10:37;12.53;;;11.23;;
11386;SDS011;5748;53.102;8.456;2024-03-07T12:13:08;13.63;;;12.27;;
11386;SDS011;5748;53.102;8.456;2024-03-07T12:15:36;12.83;;;11.43;;
11386;SDS011;5748;53.102;8.456;2024-03-07T12:18:05;14.37;;;12.87;;
11386;SDS011;5748;53.102;8.456;2024-03-07T12:20:38;15.73;;;14.13;;
11386;SDS011;5748;53.102;8.456;2024-03-07T12:23:08;18.27;;;16.40;;
11386;SDS011;5748;53.102;8.456;2024-03-07T12:25:37;19.33;;;17.13;;
11386;SDS011;5748;53.102;8.456;2024-03-07T12:28:05;18.93;;;16.20;;
11386;SDS011;5748;53.102;8.456;2024-03-07T12:30:49;15.90;;;14.20;;
11386;SDS011;5748;53.102;8.456;2024-03-07T12:33:17;15.70;;;14.10;;
11386;SDS011;5748;53.102;8.456;2024-03-07T12:35:45;16.53;;;14.50;;
11386;SDS011;5748;53.102;8.456;2024-03-07T12:38:16;16.23;;;14.50;;
11386;SDS011;5748;53.102;8.456;2024-03-07T12:40:44;15.23;;;13.63;;
11386;SDS011;5748;53.102;8.456;2024-03-07T12:43:12;14.83;;;13.10;;
11386;SDS011;5748;53.102;8.456;2024-03-07T12:45:53;14.47;;;12.97;;
11386;SDS011;5748;53.102;8.456;2024-03-07T12:48:23;11.27;;;10.10;;
11386;SDS011;5748;53.102;8.456;2024-03-07T12:50:50;9.57;;;8.67;;
11386;SDS011;5748;53.102;8.456;2024-03-07T12:53:20;7.60;;;6.80;;
11386;SDS011;5748;53.102;8.456;2024-03-07T12:55:48;6.93;;;6.33;;
11386;SDS011;5748;53.102;8.456;2024-03-07T12:58:17;7.00;;;6.20;;
11386;SDS011;5748;53.102;8.456;2024-03-07T13:00:45;5.77;;;5.27;;
11386;SDS011;5748;53.102;8.456;2024-03-07T13:03:12;5.77;;;5.27;;
11386;SDS011;5748;53.102;8.456;2024-03-07T13:05:40;6.53;;;5.93;;
11386;SDS011;5748;53.102;8.456;2024-03-07T13:08:07;7.50;;;6.70;;
11386;SDS011;5748;53.102;8.456;2024-03-07T13:10:38;7.20;;;6.50;;
11386;SDS011;5748;53.102;8.456;2024-03-07T13:13:05;6.60;;;6.00;;
11386;SDS011;5748;53.102;8.456;2024-03-07T13:15:34;6.73;;;6.07;;
11386;SDS011;5748;53.102;8.456;2024-03-07T13:18:04;6.57;;;5.43;;
11386;SDS011;5748;53.102;8.456;2024-03-07T13:20:32;6.53;;;5.83;;
11386;SDS011;5748;53.102;8.456;2024-03-07T13:22:59;7.07;;;6.37;;
11386;SDS011;5748;53.102;8.456;2024-03-07T13:25:27;7.83;;;7.03;;
11386;SDS011;5748;53.102;8.456;2024-03-07T13:28:00;7.90;;;7.17;;
11386;SDS011;5748;53.102;8.456;2024-03-07T13:30:32;7.53;;;6.83;;
11386;SDS011;5748;53.102;8.456;2024-03-07T13:33:01;7.80;;;7.03;;
11386;SDS011;5748;53.102;8.456;2024-03-07T13:35:30;7.30;;;6.60;;
11386;SDS011;5748;53.102;8.456;2024-03-07T13:37:58;7.33;;;6.60;;
11386;SDS011;5748;53.102;8.456;2024-03-07T13:40:26;6.80;;;6.10;;
11386;SDS011;5748;53.102;8.456;2024-03-07T13:42:56;6.73;;;5.80;;
11386;SDS011;5748;53.102;8.456;2024-03-07T13:45:25;6.07;;;5.47;;
11386;SDS011;5748;53.102;8.456;2024-03-07T13:47:56;5.93;;;5.33;;
11386;SDS011;5748;53.102;8.456;2024-03-07T13:50:25;6.33;;;5.73;;
11386;SDS011;5748;53.102;8.456;2024-03-07T13:52:54;5.80;;;5.20;;
11386;SDS011;5748;53.102;8.456;2024-03-07T13:58:33;5.10;;;4.40;;
11386;SDS011;5748;53.102;8.456;2024-03-07T14:01:18;5.77;;;4.60;;
11386;SDS011;5748;53.102;8.456;2024-03-07T14:04:21;4.90;;;4.50;;
11386;SDS011;5748;53.102;8.456;2024-03-07T14:07:15;5.00;;;4.50;;
11386;SDS011;5748;53.102;8.456;2024-03-07T14:10:13;4.97;;;4.47;;
11386;SDS011;5748;53.102;8.456;2024-03-07T14:13:13;4.83;;;4.43;;
11386;SDS011;5748;53.102;8.456;2024-03-07T14:16:12;4.53;;;4.00;;
11386;SDS011;5748;53.102;8.456;2024-03-07T14:19:29;4.70;;;4.30;;
11386;SDS011;5748;53.102;8.456;2024-03-07T14:22:55;5.43;;;4.80;;
11386;SDS011;5748;53.102;8.456;2024-03-07T14:25:44;6.00;;;5.40;;
11386;SDS011;5748;53.102;8.456;2024-03-07T14:31:21;5.63;;;5.10;;
11386;SDS011;5748;53.102;8.456;2024-03-07T14:33:54;7.20;;;5.50;;
11386;SDS011;5748;53.102;8.456;2024-03-07T14:36:34;5.90;;;5.10;;
11386;SDS011;5748;53.102;8.456;2024-03-07T14:39:05;5.60;;;5.00;;
11386;SDS011;5748;53.102;8.456;2024-03-07T14:41:47;6.00;;;5.40;;
11386;SDS011;5748;53.102;8.456;2024-03-07T14:44:18;5.20;;;4.70;;
11386;SDS011;5748;53.102;8.456;2024-03-07T14:46:46;5.90;;;5.37;;
11386;SDS011;5748;53.102;8.456;2024-03-07T14:49:19;5.87;;;5.27;;
11386;SDS011;5748;53.102;8.456;2024-03-07T14:51:48;6.13;;;5.53;;
11386;SDS011;5748;53.102;8.456;2024-03-07T14:54:18;6.00;;;5.40;;
11386;SDS011;5748;53.102;8.456;2024-03-07T14:56:46;6.30;;;5.70;;
11386;SDS011;5748;53.102;8.456;2024-03-07T14:59:13;5.50;;;5.00;;
11386;SDS011;5748;53.102;8.456;2024-03-07T15:01:42;5.77;;;5.20;;
11386;SDS011;5748;53.102;8.456;2024-03-07T15:04:09;6.00;;;5.40;;
11386;SDS011;5748;53.102;8.456;2024-03-07T15:06:38;6.27;;;5.67;;
11386;SDS011;5748;53.102;8.456;2024-03-07T15:09:05;6.60;;;5.90;;
11386;SDS011;5748;53.102;8.456;2024-03-07T15:11:35;6.50;;;5.70;;
11386;SDS011;5748;53.102;8.456;2024-03-07T15:14:05;6.13;;;5.53;;